sensor_id;sensor_type;location;lat;lon;timestamp;pressure;altitude;pressure_sealevel;temperature;humidity
40089;BME280;25793;55.706;13.186;2022-08-19T00:01:50;100448.06;;;24.51;70.37
40089;BME280;25793;55.706;13.186;2022-08-19T00:04:25;100456.06;;;24.51;70.76
40089;BME280;25793;55.706;13.186;2022-08-19T00:06:53;100446.53;;;24.41;70.92
40089;BME280;25793;55.706;13.186;2022-08-19T00:09:22;100449.66;;;24.45;70.99
40089;BME280;25793;55.706;13.186;2022-08-19T00:11:49;100449.66;;;24.45;70.53
40089;BME280;25793;55.706;13.186;2022-08-19T00:14:18;100450.69;;;24.29;71.25
40089;BME280;25793;55.706;13.186;2022-08-19T00:16:46;100450.59;;;24.22;71.50
40089;BME280;25793;55.706;13.186;2022-08-19T00:19:14;100444.38;;;24.30;71.41
40089;BME280;25793;55.706;13.186;2022-08-19T00:21:41;100445.81;;;24.33;71.20
40089;BME280;25793;55.706;13.186;2022-08-19T00:24:13;100444.53;;;24.29;71.65
40089;BME280;25793;55.706;13.186;2022-08-19T00:26:41;100449.59;;;24.23;71.74
40089;BME280;25793;55.706;13.186;2022-08-19T00:29:10;100445.28;;;24.22;71.85
40089;BME280;25793;55.706;13.186;2022-08-19T00:31:38;100441.44;;;24.25;71.49
40089;BME280;25793;55.706;13.186;2022-08-19T00:34:05;100447.75;;;24.24;71.95
40089;BME280;25793;55.706;13.186;2022-08-19T00:36:32;100446.69;;;24.18;72.06
40089;BME280;25793;55.706;13.186;2022-08-19T00:38:59;100451.53;;;24.15;72.15
40089;BME280;25793;55.706;13.186;2022-08-19T00:41:27;100459.94;;;24.03;72.70
40089;BME280;25793;55.706;13.186;2022-08-19T00:43:59;100466.91;;;24.04;72.84
40089;BME280;25793;55.706;13.186;2022-08-19T00:46:27;100470.47;;;23.96;72.66
40089;BME280;25793;55.706;13.186;2022-08-19T00:48:54;100464.34;;;23.96;73.10
40089;BME280;25793;55.706;13.186;2022-08-19T00:51:23;100465.16;;;23.96;72.94
40089;BME280;25793;55.706;13.186;2022-08-19T00:53:52;100478.97;;;23.92;72.83
40089;BME280;25793;55.706;13.186;2022-08-19T00:56:19;100478.06;;;23.85;73.42
40089;BME280;25793;55.706;13.186;2022-08-19T00:58:46;100478.63;;;23.80;73.20
40089;BME280;25793;55.706;13.186;2022-08-19T01:01:12;100479.72;;;23.86;73.48
40089;BME280;25793;55.706;13.186;2022-08-19T01:03:40;100483.44;;;23.91;73.27
40089;BME280;25793;55.706;13.186;2022-08-19T01:06:27;100473.31;;;23.95;73.02
40089;BME280;25793;55.706;13.186;2022-08-19T01:08:54;100472.31;;;23.96;73.20
40089;BME280;25793;55.706;13.186;2022-08-19T01:11:21;100466.78;;;23.98;72.79
40089;BME280;25793;55.706;13.186;2022-08-19T01:13:48;100466.16;;;23.95;72.80
40089;BME280;25793;55.706;13.186;2022-08-19T01:16:18;100463.44;;;24.04;73.18
40089;BME280;25793;55.706;13.186;2022-08-19T01:18:46;100462.16;;;24.00;72.62
40089;BME280;25793;55.706;13.186;2022-08-19T01:21:43;100466.47;;;24.01;72.63
40089;BME280;25793;55.706;13.186;2022-08-19T01:24:12;100461.88;;;24.09;72.64
40089;BME280;25793;55.706;13.186;2022-08-19T01:26:41;100469.19;;;24.07;72.73
40089;BME280;25793;55.706;13.186;2022-08-19T01:29:10;100465.09;;;24.05;72.18
40089;BME280;25793;55.706;13.186;2022-08-19T01:31:37;100477.94;;;24.01;72.64
40089;BME280;25793;55.706;13.186;2022-08-19T01:34:06;100478.94;;;24.00;72.66
40089;BME280;25793;55.706;13.186;2022-08-19T01:36:41;100480.00;;;23.91;72.96
40089;BME280;25793;55.706;13.186;2022-08-19T01:39:15;100469.00;;;23.94;73.00
40089;BME280;25793;55.706;13.186;2022-08-19T01:41:42;100475.69;;;23.90;73.10
40089;BME280;25793;55.706;13.186;2022-08-19T01:44:11;100470.09;;;23.85;73.10
40089;BME280;25793;55.706;13.186;2022-08-19T01:46:47;100486.75;;;23.93;72.88
40089;BME280;25793;55.706;13.186;2022-08-19T01:49:16;100483.75;;;23.96;73.20
40089;BME280;25793;55.706;13.186;2022-08-19T01:51:43;100482.59;;;23.99;72.84
40089;BME280;25793;55.706;13.186;2022-08-19T01:54:12;100490.91;;;23.96;72.64
40089;BME280;25793;55.706;13.186;2022-08-19T01:56:48;100483.28;;;23.93;72.79
40089;BME280;25793;55.706;13.186;2022-08-19T01:59:19;100485.75;;;23.94;72.95
40089;BME280;25793;55.706;13.186;2022-08-19T02:01:46;100481.28;;;23.95;72.93
40089;BME280;25793;55.706;13.186;2022-08-19T02:04:13;100475.50;;;23.91;73.19
40089;BME280;25793;55.706;13.186;2022-08-19T02:06:40;100473.66;;;23.92;73.04
40089;BME280;25793;55.706;13.186;2022-08-19T02:09:08;100471.38;;;23.89;73.21
40089;BME280;25793;55.706;13.186;2022-08-19T02:11:36;100471.00;;;23.92;73.46
40089;BME280;25793;55.706;13.186;2022-08-19T02:14:04;100476.97;;;23.94;72.99
40089;BME280;25793;55.706;13.186;2022-08-19T02:16:32;100470.00;;;23.93;72.79
40089;BME280;25793;55.706;13.186;2022-08-19T02:18:59;100478.63;;;23.95;73.01
40089;BME280;25793;55.706;13.186;2022-08-19T02:21:29;100476.50;;;23.90;73.37
40089;BME280;25793;55.706;13.186;2022-08-19T02:23:56;100475.41;;;23.85;73.79
40089;BME280;25793;55.706;13.186;2022-08-19T02:26:24;100471.19;;;23.90;73.21
40089;BME280;25793;55.706;13.186;2022-08-19T02:28:53;100469.38;;;23.91;73.33
40089;BME280;25793;55.706;13.186;2022-08-19T02:31:24;100469.34;;;23.61;73.95
40089;BME280;25793;55.706;13.186;2022-08-19T02:33:52;100468.81;;;23.19;75.67
40089;BME280;25793;55.706;13.186;2022-08-19T02:36:23;100471.41;;;23.04;76.13
40089;BME280;25793;55.706;13.186;2022-08-19T02:38:50;100464.56;;;23.10;76.20
40089;BME280;25793;55.706;13.186;2022-08-19T02:41:26;100462.69;;;23.18;76.29
40089;BME280;25793;55.706;13.186;2022-08-19T02:43:58;100455.09;;;23.15;75.70
40089;BME280;25793;55.706;13.186;2022-08-19T02:46:47;100454.75;;;22.95;76.59
40089;BME280;25793;55.706;13.186;2022-08-19T02:49:17;100454.13;;;22.85;76.97
40089;BME280;25793;55.706;13.186;2022-08-19T02:51:45;100459.50;;;23.00;76.98
40089;BME280;25793;55.706;13.186;2022-08-19T02:54:13;100447.44;;;22.97;76.84
40089;BME280;25793;55.706;13.186;2022-08-19T02:56:43;100455.75;;;22.94;76.24
40089;BME280;25793;55.706;13.186;2022-08-19T02:59:10;100447.84;;;22.86;76.97
40089;BME280;25793;55.706;13.186;2022-08-19T03:01:40;100442.28;;;22.72;77.40
40089;BME280;25793;55.706;13.186;2022-08-19T03:04:12;100443.50;;;22.61;77.61
40089;BME280;25793;55.706;13.186;2022-08-19T03:06:42;100451.00;;;22.58;78.04
40089;BME280;25793;55.706;13.186;2022-08-19T03:09:10;100447.69;;;22.56;78.18
40089;BME280;25793;55.706;13.186;2022-08-19T03:11:37;100442.69;;;22.61;78.35
40089;BME280;25793;55.706;13.186;2022-08-19T03:14:06;100437.69;;;22.66;78.25
40089;BME280;25793;55.706;13.186;2022-08-19T03:16:47;100440.03;;;22.61;78.23
40089;BME280;25793;55.706;13.186;2022-08-19T03:19:16;100445.22;;;22.77;77.85
40089;BME280;25793;55.706;13.186;2022-08-19T03:21:44;100450.53;;;23.01;77.37
40089;BME280;25793;55.706;13.186;2022-08-19T03:24:13;100456.09;;;23.14;76.26
40089;BME280;25793;55.706;13.186;2022-08-19T03:26:42;100453.59;;;23.13;75.97
40089;BME280;25793;55.706;13.186;2022-08-19T03:29:09;100463.22;;;23.14;76.01
40089;BME280;25793;55.706;13.186;2022-08-19T03:31:40;100456.16;;;23.06;76.37
40089;BME280;25793;55.706;13.186;2022-08-19T03:34:23;100456.84;;;23.00;77.00
40089;BME280;25793;55.706;13.186;2022-08-19T03:36:54;100453.91;;;22.95;76.98
40089;BME280;25793;55.706;13.186;2022-08-19T03:39:23;100453.63;;;22.89;77.63
40089;BME280;25793;55.706;13.186;2022-08-19T03:41:53;100453.44;;;22.91;77.50
40089;BME280;25793;55.706;13.186;2022-08-19T03:44:42;100446.88;;;23.02;77.34
40089;BME280;25793;55.706;13.186;2022-08-19T03:47:11;100453.94;;;23.10;77.09
40089;BME280;25793;55.706;13.186;2022-08-19T03:49:43;100452.94;;;23.11;76.89
40089;BME280;25793;55.706;13.186;2022-08-19T03:52:10;100456.44;;;23.11;76.92
40089;BME280;25793;55.706;13.186;2022-08-19T03:54:37;100451.50;;;23.08;77.21
40089;BME280;25793;55.706;13.186;2022-08-19T03:57:05;100461.22;;;23.16;77.25
40089;BME280;25793;55.706;13.186;2022-08-19T03:59:34;100460.84;;;23.19;76.84
40089;BME280;25793;55.706;13.186;2022-08-19T04:02:07;100460.19;;;23.17;77.36
40089;BME280;25793;55.706;13.186;2022-08-19T04:04:41;100464.03;;;23.23;76.67
40089;BME280;25793;55.706;13.186;2022-08-19T04:07:11;100457.53;;;23.25;76.78
40089;BME280;25793;55.706;13.186;2022-08-19T04:09:42;100455.72;;;23.26;76.73
40089;BME280;25793;55.706;13.186;2022-08-19T04:12:12;100455.72;;;23.26;76.45
40089;BME280;25793;55.706;13.186;2022-08-19T04:14:39;100469.97;;;23.25;76.57
40089;BME280;25793;55.706;13.186;2022-08-19T04:17:07;100464.69;;;23.25;76.30
40089;BME280;25793;55.706;13.186;2022-08-19T04:19:35;100458.72;;;23.23;76.39
40089;BME280;25793;55.706;13.186;2022-08-19T04:22:02;100467.13;;;23.26;76.45
40089;BME280;25793;55.706;13.186;2022-08-19T04:24:30;100468.44;;;23.30;76.51
40089;BME280;25793;55.706;13.186;2022-08-19T04:26:59;100455.53;;;23.27;76.08
40089;BME280;25793;55.706;13.186;2022-08-19T04:29:26;100465.59;;;23.32;76.24
40089;BME280;25793;55.706;13.186;2022-08-19T04:31:55;100458.16;;;23.27;76.03
40089;BME280;25793;55.706;13.186;2022-08-19T04:34:24;100453.97;;;23.33;75.59
40089;BME280;25793;55.706;13.186;2022-08-19T04:36:53;100467.19;;;23.41;75.95
40089;BME280;25793;55.706;13.186;2022-08-19T04:39:24;100469.72;;;23.34;75.59
40089;BME280;25793;55.706;13.186;2022-08-19T04:42:11;100465.44;;;23.33;76.30
40089;BME280;25793;55.706;13.186;2022-08-19T04:44:57;100478.22;;;23.30;75.98
40089;BME280;25793;55.706;13.186;2022-08-19T04:47:28;100479.41;;;23.27;76.27
40089;BME280;25793;55.706;13.186;2022-08-19T04:50:15;100479.78;;;23.16;76.50
40089;BME280;25793;55.706;13.186;2022-08-19T04:52:44;100478.78;;;23.17;76.52
40089;BME280;25793;55.706;13.186;2022-08-19T04:55:13;100475.97;;;23.18;76.29
40089;BME280;25793;55.706;13.186;2022-08-19T04:57:41;100483.13;;;23.10;76.22
40089;BME280;25793;55.706;13.186;2022-08-19T05:00:09;100500.94;;;23.01;76.82
40089;BME280;25793;55.706;13.186;2022-08-19T05:02:37;100491.75;;;22.88;76.73
40089;BME280;25793;55.706;13.186;2022-08-19T05:05:04;100504.50;;;22.85;76.82
40089;BME280;25793;55.706;13.186;2022-08-19T05:07:33;100512.00;;;22.81;76.99
40089;BME280;25793;55.706;13.186;2022-08-19T05:10:01;100510.34;;;22.80;77.35
40089;BME280;25793;55.706;13.186;2022-08-19T05:12:27;100508.34;;;22.82;76.95
40089;BME280;25793;55.706;13.186;2022-08-19T05:14:57;100497.75;;;22.82;77.03
40089;BME280;25793;55.706;13.186;2022-08-19T05:17:26;100500.78;;;22.71;77.39
40089;BME280;25793;55.706;13.186;2022-08-19T05:19:57;100503.44;;;22.71;77.39
40089;BME280;25793;55.706;13.186;2022-08-19T05:22:45;100515.38;;;22.67;77.63
40089;BME280;25793;55.706;13.186;2022-08-19T05:25:15;100519.78;;;22.74;77.69
40089;BME280;25793;55.706;13.186;2022-08-19T05:27:45;100517.16;;;22.74;77.87
40089;BME280;25793;55.706;13.186;2022-08-19T05:30:12;100513.66;;;22.82;77.61
40089;BME280;25793;55.706;13.186;2022-08-19T05:32:41;100513.31;;;22.85;77.56
40089;BME280;25793;55.706;13.186;2022-08-19T05:35:11;100499.91;;;22.78;77.05
40089;BME280;25793;55.706;13.186;2022-08-19T05:37:39;100502.97;;;22.90;77.24
40089;BME280;25793;55.706;13.186;2022-08-19T05:40:09;100491.03;;;22.95;76.97
40089;BME280;25793;55.706;13.186;2022-08-19T05:42:36;100493.16;;;22.99;76.91
40089;BME280;25793;55.706;13.186;2022-08-19T05:45:04;100504.34;;;23.10;76.50
40089;BME280;25793;55.706;13.186;2022-08-19T05:47:31;100497.69;;;23.14;76.00
40089;BME280;25793;55.706;13.186;2022-08-19T05:50:03;100505.78;;;23.20;76.26
40089;BME280;25793;55.706;13.186;2022-08-19T05:56:05;100497.66;;;23.45;75.19
40089;BME280;25793;55.706;13.186;2022-08-19T05:58:34;100513.34;;;23.55;75.07
40089;BME280;25793;55.706;13.186;2022-08-19T06:01:01;100530.84;;;23.64;74.64
40089;BME280;25793;55.706;13.186;2022-08-19T06:03:32;100530.03;;;23.64;74.48
40089;BME280;25793;55.706;13.186;2022-08-19T06:06:05;100532.72;;;23.79;74.22
40089;BME280;25793;55.706;13.186;2022-08-19T06:33:31;100515.28;;;24.00;72.48
40089;BME280;25793;55.706;13.186;2022-08-19T06:35:58;100509.59;;;24.03;72.43
40089;BME280;25793;55.706;13.186;2022-08-19T06:38:25;100508.69;;;24.25;71.79
40089;BME280;25793;55.706;13.186;2022-08-19T06:41:06;100513.63;;;24.44;71.29
40089;BME280;25793;55.706;13.186;2022-08-19T06:43:34;100509.16;;;24.44;70.49
40089;BME280;25793;55.706;13.186;2022-08-19T06:46:15;100505.09;;;24.48;70.58
40089;BME280;25793;55.706;13.186;2022-08-19T06:48:42;100499.50;;;24.58;69.83
40089;BME280;25793;55.706;13.186;2022-08-19T06:51:15;100505.44;;;24.60;70.09
40089;BME280;25793;55.706;13.186;2022-08-19T06:53:47;100498.13;;;24.62;69.85
40089;BME280;25793;55.706;13.186;2022-08-19T06:56:21;100498.75;;;24.79;69.23
40089;BME280;25793;55.706;13.186;2022-08-19T06:58:49;100498.00;;;24.85;68.91
40089;BME280;25793;55.706;13.186;2022-08-19T07:01:19;100503.50;;;24.84;68.90
40089;BME280;25793;55.706;13.186;2022-08-19T07:03:46;100499.66;;;24.87;68.70
40089;BME280;25793;55.706;13.186;2022-08-19T07:06:16;100501.72;;;24.91;68.10
40089;BME280;25793;55.706;13.186;2022-08-19T07:09:05;100503.22;;;24.94;68.34
40089;BME280;25793;55.706;13.186;2022-08-19T07:11:33;100505.66;;;24.95;68.11
40089;BME280;25793;55.706;13.186;2022-08-19T07:14:00;100513.91;;;25.00;67.92
40089;BME280;25793;55.706;13.186;2022-08-19T07:16:28;100522.91;;;24.99;67.91
40089;BME280;25793;55.706;13.186;2022-08-19T07:18:55;100521.47;;;24.97;67.65
40089;BME280;25793;55.706;13.186;2022-08-19T07:21:25;100532.00;;;24.90;68.13
40089;BME280;25793;55.706;13.186;2022-08-19T07:23:56;100528.06;;;24.86;67.73
40089;BME280;25793;55.706;13.186;2022-08-19T07:26:33;100535.88;;;24.88;67.31
40089;BME280;25793;55.706;13.186;2022-08-19T07:29:08;100527.78;;;24.81;67.13
40089;BME280;25793;55.706;13.186;2022-08-19T07:31:35;100530.84;;;24.78;67.19
40089;BME280;25793;55.706;13.186;2022-08-19T07:34:06;100525.13;;;24.66;67.41
40089;BME280;25793;55.706;13.186;2022-08-19T07:36:40;100532.03;;;24.60;67.68
40089;BME280;25793;55.706;13.186;2022-08-19T07:39:18;100535.34;;;24.62;67.91
40089;BME280;25793;55.706;13.186;2022-08-19T07:41:46;100540.38;;;24.72;67.41
40089;BME280;25793;55.706;13.186;2022-08-19T07:44:14;100547.16;;;24.90;66.88
40089;BME280;25793;55.706;13.186;2022-08-19T07:46:45;100548.75;;;25.06;66.41
40089;BME280;25793;55.706;13.186;2022-08-19T07:49:16;100548.75;;;25.06;66.16
40089;BME280;25793;55.706;13.186;2022-08-19T07:52:01;100545.09;;;25.07;65.80
40089;BME280;25793;55.706;13.186;2022-08-19T07:54:32;100556.84;;;25.19;65.59
40089;BME280;25793;55.706;13.186;2022-08-19T07:57:01;100556.00;;;25.12;65.42
40089;BME280;25793;55.706;13.186;2022-08-19T07:59:28;100560.94;;;25.15;64.97
40089;BME280;25793;55.706;13.186;2022-08-19T08:01:56;100573.34;;;25.29;64.89
40089;BME280;25793;55.706;13.186;2022-08-19T08:04:24;100560.19;;;25.43;64.71
40089;BME280;25793;55.706;13.186;2022-08-19T08:07:10;100561.91;;;25.51;64.27
40089;BME280;25793;55.706;13.186;2022-08-19T08:09:58;100571.84;;;25.42;63.69
40089;BME280;25793;55.706;13.186;2022-08-19T08:12:34;100567.47;;;25.34;63.55
40089;BME280;25793;55.706;13.186;2022-08-19T08:15:06;100567.22;;;25.29;63.87
40089;BME280;25793;55.706;13.186;2022-08-19T08:17:38;100558.84;;;25.32;63.62
40089;BME280;25793;55.706;13.186;2022-08-19T08:20:17;100553.53;;;25.32;64.31
40089;BME280;25793;55.706;13.186;2022-08-19T08:22:45;100560.25;;;25.28;64.63
40089;BME280;25793;55.706;13.186;2022-08-19T08:25:31;100559.41;;;25.27;64.97
40089;BME280;25793;55.706;13.186;2022-08-19T08:28:01;100568.09;;;25.14;64.72
40089;BME280;25793;55.706;13.186;2022-08-19T08:30:30;100568.47;;;25.11;64.99
40089;BME280;25793;55.706;13.186;2022-08-19T08:32:59;100564.59;;;25.14;65.15
40089;BME280;25793;55.706;13.186;2022-08-19T08:35:28;100561.94;;;25.14;64.77
40089;BME280;25793;55.706;13.186;2022-08-19T08:37:55;100563.84;;;25.20;64.53
40089;BME280;25793;55.706;13.186;2022-08-19T08:40:29;100570.00;;;25.21;64.41
40089;BME280;25793;55.706;13.186;2022-08-19T08:46:04;100579.88;;;25.27;65.24
40089;BME280;25793;55.706;13.186;2022-08-19T08:48:37;100578.94;;;25.13;65.31
40089;BME280;25793;55.706;13.186;2022-08-19T08:51:12;100575.75;;;25.24;65.19
40089;BME280;25793;55.706;13.186;2022-08-19T08:53:49;100571.38;;;25.38;64.84
40089;BME280;25793;55.706;13.186;2022-08-19T08:56:21;100571.53;;;25.30;64.74
40089;BME280;25793;55.706;13.186;2022-08-19T08:59:07;100569.09;;;25.13;65.17
40089;BME280;25793;55.706;13.186;2022-08-19T09:01:36;100570.94;;;25.13;65.68
40089;BME280;25793;55.706;13.186;2022-08-19T09:04:05;100580.69;;;25.27;65.81
40089;BME280;25793;55.706;13.186;2022-08-19T09:06:53;100577.84;;;25.44;64.96
40089;BME280;25793;55.706;13.186;2022-08-19T09:09:32;100577.63;;;25.46;65.09
40089;BME280;25793;55.706;13.186;2022-08-19T09:14:58;100581.16;;;25.74;64.62
40089;BME280;25793;55.706;13.186;2022-08-19T09:17:28;100587.28;;;25.97;63.59
40089;BME280;25793;55.706;13.186;2022-08-19T09:20:14;100586.03;;;26.21;63.20
40089;BME280;25793;55.706;13.186;2022-08-19T09:22:43;100576.66;;;26.32;62.73
40089;BME280;25793;55.706;13.186;2022-08-19T09:25:13;100582.88;;;26.11;62.50
40089;BME280;25793;55.706;13.186;2022-08-19T09:27:51;100572.09;;;26.19;63.26
40089;BME280;25793;55.706;13.186;2022-08-19T09:30:23;100574.94;;;26.46;61.62
40089;BME280;25793;55.706;13.186;2022-08-19T09:32:51;100571.28;;;26.54;61.96
40089;BME280;25793;55.706;13.186;2022-08-19T09:35:26;100568.88;;;26.72;60.75
40089;BME280;25793;55.706;13.186;2022-08-19T09:37:57;100561.59;;;26.95;60.62
40089;BME280;25793;55.706;13.186;2022-08-19T09:40:29;100559.59;;;27.10;59.73
40089;BME280;25793;55.706;13.186;2022-08-19T09:43:03;100570.63;;;26.87;60.60
40089;BME280;25793;55.706;13.186;2022-08-19T09:45:38;100571.22;;;26.89;60.02
40089;BME280;25793;55.706;13.186;2022-08-19T09:48:05;100583.63;;;27.10;60.00
40089;BME280;25793;55.706;13.186;2022-08-19T09:50:35;100573.38;;;27.27;59.12
40089;BME280;25793;55.706;13.186;2022-08-19T09:53:17;100574.63;;;27.25;59.58
40089;BME280;25793;55.706;13.186;2022-08-19T09:55:44;100581.34;;;27.00;59.60
40089;BME280;25793;55.706;13.186;2022-08-19T09:58:11;100583.44;;;26.70;60.53
40089;BME280;25793;55.706;13.186;2022-08-19T10:00:38;100584.34;;;26.42;61.16
40089;BME280;25793;55.706;13.186;2022-08-19T10:03:05;100580.81;;;26.35;62.08
40089;BME280;25793;55.706;13.186;2022-08-19T10:05:34;100577.59;;;26.46;61.40
40089;BME280;25793;55.706;13.186;2022-08-19T10:08:47;100574.88;;;26.39;61.78
40089;BME280;25793;55.706;13.186;2022-08-19T10:11:19;100575.50;;;26.41;61.63
40089;BME280;25793;55.706;13.186;2022-08-19T10:14:00;100574.56;;;26.56;61.69
40089;BME280;25793;55.706;13.186;2022-08-19T10:16:27;100574.41;;;26.71;61.99
40089;BME280;25793;55.706;13.186;2022-08-19T10:18:56;100571.53;;;26.66;61.56
40089;BME280;25793;55.706;13.186;2022-08-19T10:21:30;100579.94;;;26.27;62.92
40089;BME280;25793;55.706;13.186;2022-08-19T10:23:59;100577.75;;;26.09;63.95
40089;BME280;25793;55.706;13.186;2022-08-19T10:26:29;100571.91;;;26.21;64.06
40089;BME280;25793;55.706;13.186;2022-08-19T10:28:56;100565.84;;;26.33;64.22
40089;BME280;25793;55.706;13.186;2022-08-19T10:31:26;100570.28;;;26.26;64.02
40089;BME280;25793;55.706;13.186;2022-08-19T10:34:14;100566.47;;;26.36;63.85
40089;BME280;25793;55.706;13.186;2022-08-19T10:36:53;100566.75;;;26.54;63.72
40089;BME280;25793;55.706;13.186;2022-08-19T10:39:29;100566.59;;;26.69;63.26
40089;BME280;25793;55.706;13.186;2022-08-19T10:42:07;100575.13;;;26.86;62.90
40089;BME280;25793;55.706;13.186;2022-08-19T10:44:34;100573.38;;;26.65;62.98
40089;BME280;25793;55.706;13.186;2022-08-19T10:47:02;100579.09;;;26.62;63.74
40089;BME280;25793;55.706;13.186;2022-08-19T10:49:43;100577.34;;;26.41;64.00
40089;BME280;25793;55.706;13.186;2022-08-19T10:52:37;100580.28;;;26.17;64.92
40089;BME280;25793;55.706;13.186;2022-08-19T10:55:05;100587.16;;;26.12;65.16
40089;BME280;25793;55.706;13.186;2022-08-19T10:57:55;100584.59;;;25.97;65.66
40089;BME280;25793;55.706;13.186;2022-08-19T11:00:28;100593.72;;;25.81;66.62
40089;BME280;25793;55.706;13.186;2022-08-19T11:02:57;100592.53;;;25.62;66.64
40089;BME280;25793;55.706;13.186;2022-08-19T11:05:24;100590.81;;;25.54;66.16
40089;BME280;25793;55.706;13.186;2022-08-19T11:07:51;100589.75;;;25.48;66.04
40089;BME280;25793;55.706;13.186;2022-08-19T11:10:19;100593.81;;;25.44;66.62
40089;BME280;25793;55.706;13.186;2022-08-19T11:12:50;100589.22;;;25.59;66.46
40089;BME280;25793;55.706;13.186;2022-08-19T11:15:21;100587.50;;;25.73;65.97
40089;BME280;25793;55.706;13.186;2022-08-19T11:17:48;100592.19;;;25.93;65.07
40089;BME280;25793;55.706;13.186;2022-08-19T11:20:15;100592.22;;;26.00;65.03
40089;BME280;25793;55.706;13.186;2022-08-19T11:22:42;100598.63;;;26.06;65.05
40089;BME280;25793;55.706;13.186;2022-08-19T11:25:10;100591.91;;;26.10;64.93
40089;BME280;25793;55.706;13.186;2022-08-19T11:27:39;100588.50;;;25.94;65.10
40089;BME280;25793;55.706;13.186;2022-08-19T11:30:09;100590.97;;;25.96;64.97
40089;BME280;25793;55.706;13.186;2022-08-19T11:32:40;100598.81;;;26.04;64.34
40089;BME280;25793;55.706;13.186;2022-08-19T11:35:14;100590.44;;;26.07;64.70
40089;BME280;25793;55.706;13.186;2022-08-19T11:37:40;100594.75;;;26.08;64.50
40089;BME280;25793;55.706;13.186;2022-08-19T11:40:08;100589.13;;;25.96;64.10
40089;BME280;25793;55.706;13.186;2022-08-19T11:42:35;100579.19;;;25.83;65.08
40089;BME280;25793;55.706;13.186;2022-08-19T11:45:20;100591.19;;;26.01;65.40
40089;BME280;25793;55.706;13.186;2022-08-19T11:47:47;100579.38;;;25.82;65.03
40089;BME280;25793;55.706;13.186;2022-08-19T11:50:15;100577.19;;;25.64;66.89
40089;BME280;25793;55.706;13.186;2022-08-19T11:52:42;100577.88;;;25.51;65.92
40089;BME280;25793;55.706;13.186;2022-08-19T11:55:13;100579.81;;;25.42;66.37
40089;BME280;25793;55.706;13.186;2022-08-19T11:57:40;100576.59;;;25.25;66.80
40089;BME280;25793;55.706;13.186;2022-08-19T12:00:10;100581.97;;;25.10;67.84
40089;BME280;25793;55.706;13.186;2022-08-19T12:02:40;100582.84;;;25.17;68.36
40089;BME280;25793;55.706;13.186;2022-08-19T12:05:07;100580.91;;;25.26;68.84
40089;BME280;25793;55.706;13.186;2022-08-19T12:07:38;100575.69;;;25.18;69.20
40089;BME280;25793;55.706;13.186;2022-08-19T12:10:06;100577.94;;;24.99;69.65
40089;BME280;25793;55.706;13.186;2022-08-19T12:12:37;100568.69;;;24.95;70.80
40089;BME280;25793;55.706;13.186;2022-08-19T12:15:09;100563.63;;;25.00;71.12
40089;BME280;25793;55.706;13.186;2022-08-19T12:17:37;100566.53;;;25.05;71.06
40089;BME280;25793;55.706;13.186;2022-08-19T12:20:05;100564.34;;;25.09;71.55
40089;BME280;25793;55.706;13.186;2022-08-19T12:22:32;100561.56;;;24.80;72.40
40089;BME280;25793;55.706;13.186;2022-08-19T12:24:59;100552.50;;;24.75;72.75
40089;BME280;25793;55.706;13.186;2022-08-19T12:27:26;100556.69;;;24.54;73.33
40089;BME280;25793;55.706;13.186;2022-08-19T12:30:08;100547.72;;;24.55;74.14
40089;BME280;25793;55.706;13.186;2022-08-19T12:32:38;100539.66;;;24.63;74.17
40089;BME280;25793;55.706;13.186;2022-08-19T12:35:06;100535.34;;;24.47;74.67
40089;BME280;25793;55.706;13.186;2022-08-19T12:37:34;100529.13;;;24.40;75.22
40089;BME280;25793;55.706;13.186;2022-08-19T12:40:01;100531.34;;;24.36;75.87
40089;BME280;25793;55.706;13.186;2022-08-19T12:42:29;100532.22;;;24.29;75.87
40089;BME280;25793;55.706;13.186;2022-08-19T12:44:56;100528.03;;;24.19;76.77
40089;BME280;25793;55.706;13.186;2022-08-19T12:47:26;100521.88;;;24.04;77.12
40089;BME280;25793;55.706;13.186;2022-08-19T12:49:53;100512.94;;;23.96;77.60
40089;BME280;25793;55.706;13.186;2022-08-19T12:52:25;100521.75;;;23.82;78.40
40089;BME280;25793;55.706;13.186;2022-08-19T12:54:55;100517.38;;;23.66;79.23
40089;BME280;25793;55.706;13.186;2022-08-19T12:57:24;100509.25;;;23.67;80.25
40089;BME280;25793;55.706;13.186;2022-08-19T13:00:05;100507.47;;;23.83;79.43
40089;BME280;25793;55.706;13.186;2022-08-19T13:02:37;100513.31;;;23.93;79.44
40089;BME280;25793;55.706;13.186;2022-08-19T13:05:06;100503.25;;;23.89;78.94
40089;BME280;25793;55.706;13.186;2022-08-19T13:07:35;100491.13;;;23.86;79.41
40089;BME280;25793;55.706;13.186;2022-08-19T13:10:06;100498.22;;;23.94;79.29
40089;BME280;25793;55.706;13.186;2022-08-19T13:12:34;100506.19;;;23.94;78.94
40089;BME280;25793;55.706;13.186;2022-08-19T13:15:01;100506.00;;;23.95;79.41
40089;BME280;25793;55.706;13.186;2022-08-19T13:17:28;100505.66;;;23.99;78.83
40089;BME280;25793;55.706;13.186;2022-08-19T13:19:55;100500.22;;;23.92;78.60
40089;BME280;25793;55.706;13.186;2022-08-19T13:22:21;100492.13;;;23.85;79.35
40089;BME280;25793;55.706;13.186;2022-08-19T13:24:48;100492.91;;;23.94;79.60
40089;BME280;25793;55.706;13.186;2022-08-19T13:27:17;100498.63;;;24.06;78.84
40089;BME280;25793;55.706;13.186;2022-08-19T13:29:44;100498.66;;;23.98;78.64
40089;BME280;25793;55.706;13.186;2022-08-19T13:32:30;100501.41;;;23.89;79.05
40089;BME280;25793;55.706;13.186;2022-08-19T13:35:16;100497.84;;;23.97;78.98